createdAt,value
2019-05-15T00:02:10.791Z,7.90
2019-05-15T00:04:40.800Z,7.86
2019-05-15T00:07:10.949Z,7.81
2019-05-15T00:09:41.926Z,7.80
2019-05-15T00:12:12.127Z,7.77
2019-05-15T00:14:41.868Z,7.75
2019-05-15T00:17:13.276Z,7.73
2019-05-15T00:19:43.194Z,7.68
2019-05-15T00:22:13.282Z,7.66
2019-05-15T00:24:43.356Z,7.63
2019-05-15T00:27:13.434Z,7.57
2019-05-15T00:29:43.296Z,7.52
2019-05-15T00:32:13.160Z,7.45
2019-05-15T00:34:43.542Z,7.38
2019-05-15T00:37:13.580Z,7.33
2019-05-15T00:39:43.503Z,7.28
2019-05-15T00:42:13.267Z,7.21
2019-05-15T00:44:43.095Z,7.15
2019-05-15T00:47:12.916Z,7.11
2019-05-15T00:49:42.751Z,7.05
2019-05-15T00:52:13.027Z,6.99
2019-05-15T00:54:43.002Z,6.92
2019-05-15T00:57:12.904Z,6.87
2019-05-15T00:59:43.322Z,6.95
2019-05-15T01:02:13.157Z,7.01
2019-05-15T01:04:43.028Z,6.99
2019-05-15T01:07:13.488Z,6.84
2019-05-15T01:09:43.341Z,6.73
2019-05-15T01:12:13.540Z,6.66
2019-05-15T01:14:43.484Z,6.60
2019-05-15T01:17:13.240Z,6.51
2019-05-15T01:19:43.558Z,6.46
2019-05-15T01:22:13.439Z,6.43
2019-05-15T01:24:43.444Z,6.36
2019-05-15T01:27:13.367Z,6.29
2019-05-15T01:29:45.128Z,6.20
2019-05-15T01:32:16.268Z,6.11
2019-05-15T01:34:46.197Z,6.06
2019-05-15T01:37:18.747Z,6.04
2019-05-15T01:39:48.639Z,5.99
2019-05-15T01:42:18.789Z,5.92
2019-05-15T01:44:49.411Z,5.88
2019-05-15T01:47:21.328Z,5.86
2019-05-15T01:49:51.276Z,5.83
2019-05-15T01:52:21.169Z,5.80
2019-05-15T01:54:51.319Z,5.76
2019-05-15T01:57:21.097Z,5.72
2019-05-15T01:59:57.020Z,5.69
2019-05-15T02:02:22.802Z,5.69
2019-05-15T02:04:52.667Z,5.67
2019-05-15T02:07:22.509Z,5.68
2019-05-15T02:09:52.409Z,5.66
2019-05-15T02:12:22.192Z,5.65
2019-05-15T02:14:52.404Z,5.65
2019-05-15T02:17:22.357Z,5.61
2019-05-15T02:19:52.176Z,5.59
2019-05-15T02:22:22.250Z,5.55
2019-05-15T02:24:52.294Z,5.51
2019-05-15T02:27:22.180Z,5.50
2019-05-15T02:29:51.961Z,5.50
2019-05-15T02:32:22.419Z,5.47
2019-05-15T02:34:52.278Z,5.44
2019-05-15T02:37:22.040Z,5.42
2019-05-15T02:39:52.177Z,5.40
2019-05-15T02:42:22.385Z,5.38
2019-05-15T02:44:52.191Z,5.35
2019-05-15T02:47:22.622Z,5.32
2019-05-15T02:49:52.395Z,5.29
2019-05-15T02:52:22.826Z,5.28
2019-05-15T02:54:52.942Z,5.27
2019-05-15T02:57:23.207Z,5.27
2019-05-15T02:59:53.174Z,5.31
2019-05-15T03:02:23.043Z,5.35
2019-05-15T03:04:52.969Z,5.34
2019-05-15T03:07:22.931Z,5.35
2019-05-15T03:09:52.818Z,5.43
2019-05-15T03:12:22.688Z,5.51
2019-05-15T03:14:52.628Z,5.59
2019-05-15T03:17:22.518Z,5.62
2019-05-15T03:19:52.434Z,5.66
2019-05-15T03:22:22.481Z,5.67
2019-05-15T03:24:52.539Z,5.67
2019-05-15T03:27:22.508Z,5.64
2019-05-15T03:29:52.894Z,5.56
2019-05-15T03:32:34.009Z,5.49
2019-05-15T03:34:56.844Z,5.45
2019-05-15T03:37:26.002Z,5.47
2019-05-15T03:39:59.229Z,5.49
2019-05-15T03:42:29.376Z,5.49
2019-05-15T03:44:59.860Z,5.47
2019-05-15T03:47:30.316Z,5.41
2019-05-15T03:50:00.391Z,5.34
2019-05-15T03:52:30.336Z,5.33
2019-05-15T03:55:00.262Z,5.40
2019-05-15T03:57:30.712Z,5.44
2019-05-15T04:00:01.238Z,5.42
2019-05-15T04:02:32.367Z,5.38
2019-05-15T04:05:03.089Z,5.37
2019-05-15T04:07:33.168Z,5.45
2019-05-15T04:10:03.033Z,5.50
2019-05-15T04:12:33.244Z,5.48
2019-05-15T04:15:03.119Z,5.46
2019-05-15T04:17:33.101Z,5.47
2019-05-15T04:20:02.930Z,5.52
2019-05-15T04:22:33.253Z,5.61
2019-05-15T04:25:04.799Z,5.69
2019-05-15T04:27:39.023Z,5.71
2019-05-15T04:30:11.108Z,5.81
2019-05-15T04:32:41.399Z,5.78
2019-05-15T04:35:12.821Z,5.75
2019-05-15T04:37:43.412Z,5.76
2019-05-15T04:40:13.870Z,5.83
2019-05-15T04:42:43.802Z,5.91
2019-05-15T04:45:14.210Z,6.00
2019-05-15T04:47:44.235Z,6.03
2019-05-15T04:50:15.638Z,6.08
2019-05-15T04:52:45.670Z,6.19
2019-05-15T04:55:15.578Z,6.19
2019-05-15T04:57:45.596Z,6.23
2019-05-15T05:00:19.896Z,6.32
2019-05-15T05:02:50.337Z,6.43
2019-05-15T05:05:20.516Z,6.60
2019-05-15T05:07:50.478Z,8.21
2019-05-15T05:10:20.455Z,10.47
2019-05-15T05:12:51.069Z,11.87
2019-05-15T05:15:21.403Z,12.74
2019-05-15T05:17:51.242Z,13.47
2019-05-15T05:20:21.591Z,13.99
2019-05-15T05:22:51.611Z,14.11
2019-05-15T05:25:21.614Z,14.66
2019-05-15T05:27:51.618Z,15.03
2019-05-15T05:30:21.730Z,15.32
2019-05-15T05:32:52.114Z,15.35
2019-05-15T05:35:23.123Z,15.87
2019-05-15T05:37:53.318Z,16.81
2019-05-15T05:40:23.131Z,17.33
2019-05-15T05:42:53.405Z,17.58
2019-05-15T05:45:23.301Z,17.34
2019-05-15T05:47:53.386Z,17.13
2019-05-15T05:50:44.106Z,17.00
2019-05-15T05:53:13.485Z,16.91
2019-05-15T05:55:43.755Z,17.10
2019-05-15T05:58:13.932Z,16.72
2019-05-15T06:00:45.615Z,16.56
2019-05-15T06:03:15.657Z,17.06
2019-05-15T06:05:45.599Z,17.09
2019-05-15T06:08:15.730Z,16.82
2019-05-15T06:10:45.611Z,16.57
2019-05-15T06:13:15.606Z,16.57
2019-05-15T06:15:45.487Z,16.82
2019-05-15T06:18:15.347Z,16.89
2019-05-15T06:20:45.425Z,16.95
2019-05-15T06:23:15.469Z,16.61
2019-05-15T06:25:48.592Z,16.11
2019-05-15T06:28:20.029Z,15.84
2019-05-15T06:30:50.166Z,15.41
2019-05-15T06:33:19.935Z,14.38
2019-05-15T06:35:49.813Z,13.88
2019-05-15T06:38:19.900Z,13.45
2019-05-15T06:40:50.493Z,13.10
2019-05-15T06:43:20.382Z,12.84
2019-05-15T06:45:50.352Z,12.71
2019-05-15T06:48:20.572Z,12.82
2019-05-15T06:50:50.539Z,12.78
2019-05-15T06:53:20.375Z,12.54
2019-05-15T06:55:50.226Z,12.29
2019-05-15T06:58:20.262Z,12.25
2019-05-15T07:00:50.345Z,12.23
2019-05-15T07:03:25.512Z,12.15
2019-05-15T07:05:52.578Z,12.05
2019-05-15T07:08:22.382Z,12.00
2019-05-15T07:10:52.469Z,11.93
2019-05-15T07:13:22.565Z,11.83
2019-05-15T07:15:52.504Z,11.75
2019-05-15T07:18:22.933Z,11.78
2019-05-15T07:20:53.050Z,11.79
2019-05-15T07:23:27.116Z,11.62
2019-05-15T07:25:55.378Z,11.63
2019-05-15T07:28:25.133Z,11.55
2019-05-15T07:30:55.085Z,11.37
2019-05-15T07:33:36.722Z,11.32
2019-05-15T07:35:58.956Z,11.35
2019-05-15T07:38:28.373Z,11.51
2019-05-15T07:41:03.404Z,11.48
2019-05-15T07:43:29.932Z,11.36
2019-05-15T07:45:59.754Z,11.33
2019-05-15T07:48:30.071Z,11.26
2019-05-15T07:51:00.018Z,11.39
2019-05-15T07:53:30.144Z,11.33
2019-05-15T07:56:01.571Z,11.30
2019-05-15T07:58:31.692Z,11.43
2019-05-15T08:01:05.352Z,11.44
2019-05-15T08:03:34.241Z,11.55
2019-05-15T08:06:04.272Z,11.54
2019-05-15T08:08:34.295Z,11.55
2019-05-15T08:11:19.578Z,11.57
2019-05-15T08:13:38.292Z,11.66
2019-05-15T08:16:08.720Z,11.81
2019-05-15T08:18:39.510Z,11.76
2019-05-15T08:21:09.612Z,11.80
2019-05-15T08:23:39.447Z,11.77
2019-05-15T08:26:09.376Z,11.72
2019-05-15T08:28:39.200Z,11.61
2019-05-15T08:31:10.361Z,11.56
2019-05-15T08:33:40.731Z,11.54
2019-05-15T08:36:10.884Z,11.85
2019-05-15T08:38:40.717Z,12.04
2019-05-15T08:41:11.654Z,12.14
2019-05-15T08:43:41.844Z,12.22
2019-05-15T08:46:11.809Z,12.28
2019-05-15T08:48:41.686Z,12.36
2019-05-15T08:51:11.854Z,12.49
2019-05-15T08:53:42.010Z,12.41
2019-05-15T08:56:14.707Z,12.29
2019-05-15T08:58:43.372Z,12.30
2019-05-15T09:01:13.617Z,12.47
2019-05-15T09:03:43.623Z,12.43
2019-05-15T09:06:13.483Z,12.48
2019-05-15T09:08:43.310Z,12.66
2019-05-15T09:11:14.185Z,12.83
2019-05-15T09:13:44.574Z,12.87
2019-05-15T09:16:14.467Z,13.01
2019-05-15T09:18:44.449Z,13.18
2019-05-15T09:21:14.626Z,13.32
2019-05-15T09:23:44.661Z,13.41
2019-05-15T09:26:14.785Z,13.35
2019-05-15T09:28:44.653Z,13.42
2019-05-15T09:31:14.922Z,13.36
2019-05-15T09:33:44.798Z,13.62
2019-05-15T09:36:14.588Z,13.86
2019-05-15T09:38:45.089Z,13.86
2019-05-15T09:41:14.969Z,13.79
2019-05-15T09:43:45.202Z,13.57
2019-05-15T09:46:15.158Z,13.73
2019-05-15T09:48:48.667Z,13.90
2019-05-15T09:51:18.350Z,14.08
2019-05-15T09:53:48.677Z,14.08
2019-05-15T09:56:18.839Z,14.03
2019-05-15T09:58:49.227Z,14.21
2019-05-15T10:01:19.806Z,14.05
2019-05-15T10:03:50.154Z,14.02
2019-05-15T10:06:20.765Z,14.08
2019-05-15T10:08:50.739Z,14.18
2019-05-15T10:11:21.193Z,14.35
2019-05-15T10:13:51.494Z,14.42
2019-05-15T10:16:21.726Z,14.68
2019-05-15T10:18:51.905Z,14.92
2019-05-15T10:21:22.035Z,14.91
2019-05-15T10:23:53.061Z,14.79
2019-05-15T10:26:22.895Z,14.88
2019-05-15T10:28:53.227Z,14.82
2019-05-15T10:31:23.153Z,14.82
2019-05-15T10:33:53.309Z,15.02
2019-05-15T10:36:23.119Z,15.19
2019-05-15T10:38:53.766Z,15.27
2019-05-15T10:41:23.644Z,15.25
2019-05-15T10:43:56.421Z,15.14
2019-05-15T10:46:25.256Z,15.18
2019-05-15T10:48:55.175Z,15.25
2019-05-15T10:51:25.418Z,15.32
2019-05-15T10:53:55.371Z,15.56
2019-05-15T10:56:25.361Z,15.83
2019-05-15T10:58:55.547Z,16.02
2019-05-15T11:01:25.473Z,16.13
2019-05-15T11:03:55.300Z,16.23
2019-05-15T11:06:25.193Z,15.91
2019-05-15T11:08:55.177Z,15.59
2019-05-15T11:11:25.342Z,15.57
2019-05-15T11:14:00.327Z,15.50
2019-05-15T11:16:28.199Z,15.52
2019-05-15T11:18:58.673Z,15.79
2019-05-15T11:21:28.630Z,16.43
2019-05-15T11:23:59.130Z,16.48
2019-05-15T11:26:33.483Z,16.06
2019-05-15T11:29:01.262Z,15.82
2019-05-15T11:31:31.491Z,15.69
2019-05-15T11:34:01.742Z,15.57
2019-05-15T11:36:31.751Z,15.49
2019-05-15T11:39:01.881Z,15.49
2019-05-15T11:41:31.788Z,15.40
2019-05-15T11:44:02.804Z,15.34
2019-05-15T11:46:33.319Z,15.31
2019-05-15T11:49:03.152Z,15.40
2019-05-15T11:51:33.078Z,15.40
2019-05-15T11:54:03.260Z,15.78
2019-05-15T11:56:33.187Z,16.33
2019-05-15T11:59:03.448Z,16.52
2019-05-15T12:01:33.866Z,16.44
2019-05-15T12:04:03.835Z,16.49
2019-05-15T12:06:33.831Z,16.53
2019-05-15T12:09:05.618Z,16.40
2019-05-15T12:11:39.925Z,16.43
2019-05-15T12:14:08.476Z,16.65
2019-05-15T12:16:39.852Z,16.85
2019-05-15T12:19:16.792Z,17.18
2019-05-15T12:21:42.097Z,17.25
2019-05-15T12:24:12.085Z,17.05
2019-05-15T12:26:42.049Z,16.95
2019-05-15T12:29:11.976Z,16.90
2019-05-15T12:31:42.024Z,17.09
2019-05-15T12:34:12.015Z,17.42
2019-05-15T12:36:52.089Z,17.30
2019-05-15T12:39:14.106Z,17.01
2019-05-15T13:01:59.941Z,17.14
2019-05-15T13:04:30.005Z,16.80
2019-05-15T13:07:13.069Z,16.56
2019-05-15T13:09:31.474Z,16.41
2019-05-15T13:12:01.318Z,16.43
2019-05-15T13:14:31.288Z,16.19
2019-05-15T13:17:01.236Z,16.11
2019-05-15T13:19:31.171Z,16.18
2019-05-15T13:22:01.006Z,16.42
2019-05-15T13:24:30.903Z,16.54
2019-05-15T13:27:00.802Z,16.54
2019-05-15T13:29:30.919Z,16.42
2019-05-15T13:32:01.100Z,16.32
2019-05-15T13:34:31.049Z,16.05
2019-05-15T13:37:01.390Z,15.90
2019-05-15T13:39:32.456Z,15.78
2019-05-15T13:42:02.779Z,15.69
2019-05-15T13:44:33.808Z,15.59
2019-05-15T13:47:04.126Z,15.62
2019-05-15T13:49:33.996Z,15.69
2019-05-15T13:52:03.846Z,15.63
2019-05-15T13:54:33.693Z,15.67
2019-05-15T13:57:03.529Z,15.77
2019-05-15T13:59:33.344Z,15.79
2019-05-15T14:02:03.265Z,15.92
2019-05-15T14:04:33.353Z,15.88
2019-05-15T14:07:03.314Z,15.82
2019-05-15T14:09:34.474Z,15.84
2019-05-15T14:12:04.897Z,15.78
2019-05-15T14:14:38.421Z,15.58
2019-05-15T14:17:09.280Z,15.57
2019-05-15T14:19:40.076Z,15.58
2019-05-15T14:22:09.959Z,15.54
2019-05-15T14:24:40.107Z,15.51
2019-05-15T14:27:10.057Z,15.54
2019-05-15T14:29:39.865Z,15.49
2019-05-15T14:32:09.982Z,15.56
2019-05-15T14:34:39.927Z,15.63
2019-05-15T14:37:11.031Z,15.79
2019-05-15T14:39:41.256Z,16.04
2019-05-15T14:42:11.536Z,16.22
2019-05-15T14:44:41.720Z,16.29
2019-05-15T14:47:12.324Z,16.34
2019-05-15T14:49:44.510Z,16.31
2019-05-15T14:52:14.335Z,16.30
2019-05-15T14:54:44.342Z,16.29
2019-05-15T14:57:14.254Z,16.09
2019-05-15T14:59:44.362Z,16.03
2019-05-15T15:02:14.190Z,15.88
2019-05-15T15:04:44.154Z,15.85
2019-05-15T15:07:13.990Z,15.96
2019-05-15T15:09:43.783Z,15.92
2019-05-15T15:12:13.729Z,15.93
2019-05-15T15:14:43.836Z,16.01
2019-05-15T15:17:13.599Z,16.12
2019-05-15T15:19:43.545Z,16.13
2019-05-15T15:22:13.405Z,16.30
2019-05-15T15:24:43.362Z,16.28
2019-05-15T15:27:13.332Z,16.22
2019-05-15T15:29:43.145Z,16.20
2019-05-15T15:32:13.222Z,16.36
2019-05-15T15:34:43.054Z,16.51
2019-05-15T15:37:12.960Z,16.72
2019-05-15T15:39:42.866Z,16.71
2019-05-15T15:42:12.858Z,16.81
2019-05-15T15:44:43.093Z,16.53
2019-05-15T15:47:12.891Z,16.63
2019-05-15T15:49:42.927Z,16.57
2019-05-15T15:52:12.998Z,16.59
2019-05-15T15:54:42.865Z,16.53
2019-05-15T15:57:13.796Z,16.34
2019-05-15T15:59:43.977Z,16.16
2019-05-15T16:02:13.985Z,16.13
2019-05-15T16:04:44.036Z,16.15
2019-05-15T16:07:14.098Z,16.17
2019-05-15T16:09:44.097Z,16.29
2019-05-15T16:12:14.584Z,16.42
2019-05-15T16:14:50.849Z,16.34
2019-05-15T16:17:21.252Z,16.40
2019-05-15T16:19:51.474Z,16.51
2019-05-15T16:22:21.368Z,16.32
2019-05-15T16:24:52.506Z,16.20
2019-05-15T16:27:22.753Z,16.15
2019-05-15T16:29:52.644Z,16.06
2019-05-15T16:32:22.579Z,15.99
2019-05-15T16:34:53.599Z,15.94
2019-05-15T16:37:23.893Z,15.81
2019-05-15T16:39:53.715Z,15.97
2019-05-15T16:42:23.650Z,15.89
2019-05-15T16:44:53.908Z,15.82
2019-05-15T16:47:27.848Z,15.77
2019-05-15T16:49:57.971Z,15.67
2019-05-15T16:52:30.982Z,15.69
2019-05-15T16:55:00.101Z,15.61
2019-05-15T16:57:30.330Z,15.57
2019-05-15T17:00:00.154Z,15.53
2019-05-15T17:02:32.173Z,15.49
2019-05-15T17:05:01.593Z,15.48
2019-05-15T17:07:32.464Z,15.46
2019-05-15T17:10:02.604Z,15.39
2019-05-15T17:12:32.777Z,15.36
2019-05-15T17:15:02.624Z,15.31
2019-05-15T17:17:32.610Z,15.25
2019-05-15T17:20:02.568Z,15.24
2019-05-15T17:22:32.638Z,15.25
2019-05-15T17:25:02.584Z,15.29
2019-05-15T17:27:32.618Z,15.34
2019-05-15T17:30:02.710Z,15.26
2019-05-15T17:32:33.953Z,15.12
2019-05-15T17:35:05.355Z,15.06
2019-05-15T17:37:35.193Z,15.04
2019-05-15T17:40:06.142Z,14.97
2019-05-15T17:42:38.907Z,14.93
2019-05-15T17:45:09.371Z,14.86
2019-05-15T17:47:40.761Z,14.84
2019-05-15T17:50:11.488Z,14.77
2019-05-15T17:52:41.663Z,14.72
2019-05-15T17:55:11.918Z,14.66
2019-05-15T17:57:41.880Z,14.59
2019-05-15T18:00:12.914Z,14.54
2019-05-15T18:02:43.260Z,14.49
2019-05-15T18:05:13.459Z,14.45
2019-05-15T18:07:43.429Z,14.38
2019-05-15T18:10:13.497Z,14.35
2019-05-15T18:12:43.493Z,14.33
2019-05-15T18:15:14.032Z,14.26
2019-05-15T18:17:43.867Z,14.19
2019-05-15T18:20:15.249Z,14.16
2019-05-15T18:22:45.036Z,14.10
2019-05-15T18:25:14.951Z,14.09
2019-05-15T18:27:44.861Z,14.05
2019-05-15T18:30:18.127Z,13.98
2019-05-15T18:32:48.842Z,13.91
2019-05-15T18:35:18.969Z,13.87
2019-05-15T18:37:48.913Z,13.82
2019-05-15T18:40:20.057Z,13.76
2019-05-15T18:42:49.905Z,13.71
2019-05-15T18:45:20.120Z,13.67
2019-05-15T18:47:50.165Z,13.64
2019-05-15T18:50:20.439Z,13.63
2019-05-15T18:52:50.398Z,13.60
2019-05-15T18:55:20.289Z,13.56
2019-05-15T18:57:50.102Z,13.52
2019-05-15T19:00:20.277Z,13.49
2019-05-15T19:02:50.391Z,13.48
2019-05-15T19:05:20.334Z,13.45
2019-05-15T19:07:50.163Z,13.41
2019-05-15T19:10:21.404Z,13.37
2019-05-15T19:12:51.270Z,13.20
2019-05-15T19:15:21.334Z,13.31
2019-05-15T19:17:51.207Z,13.26
2019-05-15T19:20:21.489Z,13.23
2019-05-15T19:22:51.856Z,13.22
2019-05-15T19:25:21.737Z,13.22
2019-05-15T19:27:52.804Z,13.16
2019-05-15T19:30:23.381Z,13.10
2019-05-15T19:32:53.427Z,13.09
2019-05-15T19:35:23.492Z,13.04
2019-05-15T19:37:53.832Z,12.99
2019-05-15T19:40:23.715Z,12.94
2019-05-15T19:42:54.161Z,12.93
2019-05-15T19:45:24.665Z,12.92
2019-05-15T19:47:54.538Z,12.91
2019-05-15T19:50:24.847Z,12.87
2019-05-15T19:52:54.656Z,12.85
2019-05-15T19:55:24.870Z,12.86
2019-05-15T19:57:54.695Z,12.82
2019-05-15T20:00:28.254Z,12.78
2019-05-15T20:02:58.696Z,12.74
2019-05-15T20:05:30.622Z,12.74
2019-05-15T20:08:00.948Z,12.72
2019-05-15T20:10:30.991Z,12.69
2019-05-15T20:13:01.071Z,12.64
2019-05-15T20:15:32.567Z,12.61
2019-05-15T20:18:02.939Z,12.60
2019-05-15T20:20:33.141Z,12.59
2019-05-15T20:23:03.111Z,12.57
2019-05-15T20:25:33.164Z,12.54
2019-05-15T20:28:03.143Z,12.50
2019-05-15T20:30:33.447Z,12.49
2019-05-15T20:33:03.356Z,12.44
2019-05-15T20:35:34.213Z,12.42
2019-05-15T20:38:04.534Z,12.35
2019-05-15T20:40:34.700Z,12.31
2019-05-15T20:43:04.605Z,12.26
2019-05-15T20:45:34.554Z,12.24
2019-05-15T20:48:04.549Z,12.22
2019-05-15T20:50:34.487Z,12.18
2019-05-15T20:53:04.417Z,12.16
2019-05-15T20:55:34.514Z,12.16
2019-05-15T20:58:04.873Z,12.15
2019-05-15T21:00:35.053Z,12.10
2019-05-15T21:03:04.933Z,12.07
2019-05-15T21:05:38.131Z,12.01
2019-05-15T21:08:07.460Z,11.99
2019-05-15T21:10:42.830Z,11.98
2019-05-15T21:13:09.264Z,11.99
2019-05-15T21:15:39.486Z,11.97
2019-05-15T21:18:15.493Z,11.95
2019-05-15T21:20:41.560Z,11.95
2019-05-15T21:23:11.495Z,11.93
2019-05-15T21:25:41.322Z,11.91
2019-05-15T21:28:11.305Z,11.90
2019-05-15T21:30:41.240Z,11.89
2019-05-15T21:33:12.743Z,11.83
2019-05-15T21:35:42.868Z,11.85
2019-05-15T21:38:13.037Z,11.81
2019-05-15T21:40:42.843Z,11.77
2019-05-15T21:43:12.618Z,11.75
2019-05-15T21:45:42.562Z,11.73
2019-05-15T21:48:13.843Z,11.74
2019-05-15T21:50:44.260Z,11.72
2019-05-15T21:53:14.367Z,11.74
2019-05-15T21:55:44.866Z,11.73
2019-05-15T21:58:14.734Z,11.71
2019-05-15T22:00:48.467Z,11.66
2019-05-15T22:03:20.105Z,11.63
2019-05-15T22:05:50.068Z,11.63
2019-05-15T22:08:20.607Z,11.61
2019-05-15T22:10:51.612Z,11.58
2019-05-15T22:13:21.536Z,11.59
2019-05-15T22:15:52.019Z,11.59
2019-05-15T22:18:23.426Z,11.61
2019-05-15T22:20:53.523Z,11.63
2019-05-15T22:23:23.720Z,11.62
2019-05-15T22:25:53.656Z,11.62
2019-05-15T22:28:23.411Z,11.55
2019-05-15T22:30:53.287Z,11.50
2019-05-15T22:33:23.414Z,11.47
2019-05-15T22:35:53.410Z,11.46
2019-05-15T22:38:23.410Z,11.44
2019-05-15T22:40:53.583Z,11.43
2019-05-15T22:43:24.031Z,11.39
2019-05-15T22:45:54.835Z,11.33
2019-05-15T22:48:24.688Z,11.31
2019-05-15T22:50:54.575Z,11.30
2019-05-15T22:53:24.906Z,11.30
2019-05-15T22:55:54.905Z,11.28
2019-05-15T22:58:24.788Z,11.22
2019-05-15T23:00:54.635Z,11.15
2019-05-15T23:03:24.549Z,11.14
2019-05-15T23:05:54.412Z,11.11
2019-05-15T23:08:24.523Z,11.10
2019-05-15T23:10:55.839Z,11.08
2019-05-15T23:13:28.376Z,11.05
2019-05-15T23:15:58.464Z,10.91
2019-05-15T23:18:28.487Z,10.58
2019-05-15T23:20:59.432Z,10.33
2019-05-15T23:23:30.622Z,10.27
2019-05-15T23:26:00.588Z,10.30
2019-05-15T23:28:30.671Z,10.19
2019-05-15T23:31:00.815Z,10.14
2019-05-15T23:33:30.714Z,10.11
2019-05-15T23:36:00.677Z,10.03
2019-05-15T23:38:30.478Z,9.98
2019-05-15T23:41:00.447Z,9.96
2019-05-15T23:43:30.364Z,9.97
2019-05-15T23:46:00.213Z,9.93
2019-05-15T23:48:30.116Z,9.94
2019-05-15T23:51:00.074Z,9.95
2019-05-15T23:53:30.232Z,9.96
2019-05-15T23:56:00.114Z,9.95
2019-05-15T23:58:30.405Z,9.93
